Time;durP1;ratioP1;P1;durP2;ratioP2;P2;SDS_P1;SDS_P2;PMS_P1;PMS_P2;Temp;Humidity;BMP_temperature;BMP_pressure;BME280_temperature;BME280_humidity;BME280_pressure;Samples;Min_cycle;Max_cycle;Signal;HPM_P1;HPM_P2
2023/12/06 00:02:07;;;;;;;36.25;17.63;;;;;;;5.44;64.87;100947.63;4999788;28;114195;-78
2023/12/06 00:04:34;;;;;;;37.72;17.48;;;;;;;5.45;65.17;100949.38;4987277;28;115360;-78
2023/12/06 00:07:02;;;;;;;38.63;17.98;;;;;;;5.44;65.02;100942.38;4983427;28;124670;-78
2023/12/06 00:09:29;;;;;;;36.15;17.38;;;;;;;5.46;65.11;100945.84;4992220;28;123505;-78
2023/12/06 00:11:56;;;;;;;37.47;17.75;;;;;;;5.47;65.24;100952.81;4991301;28;114116;-78
2023/12/06 00:14:23;;;;;;;36.55;17.20;;;;;;;5.49;64.96;100953.66;5001861;28;114073;-78
2023/12/06 00:16:51;;;;;;;35.25;17.20;;;;;;;5.50;65.21;100958.03;4976233;28;125243;-78
2023/12/06 00:19:18;;;;;;;35.35;16.88;;;;;;;5.50;64.89;100955.41;4999405;28;123569;-76
2023/12/06 00:21:45;;;;;;;33.05;16.02;;;;;;;5.49;65.08;100961.53;4986970;28;114703;-78
2023/12/06 00:24:13;;;;;;;39.30;18.27;;;;;;;5.49;64.97;100966.78;5000482;28;115132;-78
2023/12/06 00:26:42;;;;;;;36.15;16.98;;;;;;;5.49;64.96;100966.78;4989019;28;124818;-76
2023/12/06 00:29:09;;;;;;;38.95;18.13;;;;;;;5.50;64.82;100973.78;5003602;28;123967;-76
2023/12/06 00:31:36;;;;;;;34.05;16.10;;;;;;;5.49;64.92;100966.78;4967193;28;115090;-76
2023/12/06 00:34:03;;;;;;;41.20;17.95;;;;;;;5.50;65.12;100962.38;4989714;28;114962;-76
2023/12/06 00:36:31;;;;;;;39.00;17.85;;;;;;;5.53;65.44;100967.59;5005150;28;123923;-77
2023/12/06 00:38:59;;;;;;;36.03;16.35;;;;;;;5.54;65.34;100970.19;4995396;28;123599;-77
2023/12/06 00:41:26;;;;;;;36.40;18.15;;;;;;;5.55;64.96;100969.28;5008911;28;114336;-76
2023/12/06 00:43:55;;;;;;;35.92;17.00;;;;;;;5.56;65.19;100978.91;5002267;28;113505;-77
2023/12/06 00:46:24;;;;;;;37.80;17.08;;;;;;;5.57;65.29;100985.88;4992030;28;122824;-77
2023/12/06 00:48:52;;;;;;;37.70;17.38;;;;;;;5.58;65.02;100984.97;4980414;28;123928;-77
2023/12/06 00:51:20;;;;;;;36.13;17.73;;;;;;;5.59;64.99;100984.06;4975352;28;114806;-78
2023/12/06 00:53:47;;;;;;;34.47;17.20;;;;;;;5.58;65.21;100987.59;5011146;28;114083;-77
2023/12/06 00:56:14;;;;;;;35.58;17.48;;;;;;;5.58;65.06;100987.59;4975073;28;125437;-77
2023/12/06 00:58:43;;;;;;;36.45;18.40;;;;;;;5.59;65.31;100999.81;4992843;28;123132;-78
2023/12/06 01:01:13;;;;;;;37.05;17.40;;;;;;;5.61;65.10;100998.06;4994122;28;114326;-78
2023/12/06 01:03:40;;;;;;;37.40;18.65;;;;;;;5.61;65.36;101003.31;4979051;28;113462;-78
2023/12/06 01:06:08;;;;;;;36.70;17.20;;;;;;;5.64;65.27;101013.75;4984417;28;125218;-78
2023/12/06 01:08:36;;;;;;;36.88;17.67;;;;;;;5.65;65.32;101012.84;4992260;28;123213;-77
2023/12/06 01:11:03;;;;;;;36.33;18.30;;;;;;;5.66;65.30;101011.94;4991060;28;115022;-77
2023/12/06 01:13:30;;;;;;;38.90;18.02;;;;;;;5.68;65.15;101013.69;4989128;28;114048;-77
2023/12/06 01:15:57;;;;;;;35.42;17.80;;;;;;;5.68;65.11;101018.94;4989626;28;125218;-77
2023/12/06 01:18:24;;;;;;;35.05;18.23;;;;;;;5.69;65.28;101026.78;5004124;28;123574;-78
2023/12/06 01:20:52;;;;;;;33.78;16.92;;;;;;;5.71;65.28;101029.34;4993505;28;114181;-77
2023/12/06 01:23:20;;;;;;;37.47;18.02;;;;;;;5.71;65.13;101034.63;4978562;28;112260;-76
2023/12/06 01:25:47;;;;;;;39.35;18.15;;;;;;;5.73;65.24;101038.09;4981242;28;123462;-77
2023/12/06 01:28:14;;;;;;;37.00;17.73;;;;;;;5.73;65.21;101038.09;4987100;28;124227;-77
2023/12/06 01:30:41;;;;;;;33.70;17.27;;;;;;;5.75;65.35;101036.31;4991417;28;114483;-77
2023/12/06 01:33:08;;;;;;;35.88;17.67;;;;;;;5.75;65.00;101031.91;4988901;28;115172;-77
2023/12/06 01:35:35;;;;;;;39.28;18.15;;;;;;;5.78;65.11;101036.22;4987823;28;124900;-77
2023/12/06 01:38:03;;;;;;;36.60;17.92;;;;;;;5.79;65.06;101037.97;4978769;28;123858;-77
2023/12/06 01:40:30;;;;;;;38.55;18.02;;;;;;;5.81;65.32;101052.78;5009998;28;116125;-76
2023/12/06 01:42:57;;;;;;;36.30;17.85;;;;;;;5.83;65.08;101055.38;5000712;28;114375;-77
2023/12/06 01:45:24;;;;;;;35.80;17.70;;;;;;;5.85;65.08;101048.31;5022342;28;122600;-76
2023/12/06 01:47:53;;;;;;;39.42;17.58;;;;;;;5.86;65.41;101057.97;5015728;28;124060;-77
2023/12/06 01:50:22;;;;;;;39.22;18.67;;;;;;;5.88;64.99;101068.41;5003410;28;114693;-77
2023/12/06 01:52:49;;;;;;;36.92;17.42;;;;;;;5.88;65.14;101064.03;5008810;28;113059;-77
2023/12/06 01:55:16;;;;;;;38.17;17.75;;;;;;;5.90;65.21;101062.25;4985265;28;123237;-77
2023/12/06 01:57:44;;;;;;;37.13;17.65;;;;;;;5.92;65.17;101060.44;4986223;28;124365;-77
2023/12/06 02:00:12;;;;;;;39.42;18.55;;;;;;;5.90;65.30;101062.25;4983766;28;114250;-77
2023/12/06 02:02:40;;;;;;;37.03;18.30;;;;;;;5.93;65.19;101067.41;4982646;28;115017;-77
2023/12/06 02:05:08;;;;;;;40.80;18.23;;;;;;;5.96;65.38;101072.66;5009644;28;123601;-78
2023/12/06 02:07:36;;;;;;;38.90;18.45;;;;;;;5.96;65.38;101077.91;4991804;28;125063;-77
2023/12/06 02:10:03;;;;;;;38.90;18.70;;;;;;;5.99;65.30;101066.44;5010143;28;114449;-77
2023/12/06 02:12:31;;;;;;;39.45;18.85;;;;;;;6.00;65.24;101069.03;5013002;28;113456;-77
2023/12/06 02:14:59;;;;;;;39.45;17.58;;;;;;;6.03;65.36;101068.97;4987538;28;124056;-77
2023/12/06 02:17:28;;;;;;;41.88;18.50;;;;;;;6.04;65.52;101075.97;4984348;28;121883;-77
2023/12/06 02:19:56;;;;;;;40.95;18.50;;;;;;;6.03;65.35;101079.50;4980617;28;114466;-76
2023/12/06 02:22:24;;;;;;;39.45;18.17;;;;;;;6.04;65.20;101075.97;4984947;28;113468;-77
2023/12/06 02:24:56;;;;;;;41.75;18.23;;;;;;;6.07;65.26;101079.44;4982419;28;123473;-77
2023/12/06 02:27:23;;;;;;;40.20;18.42;;;;;;;6.06;65.43;101072.44;4989939;28;124232;-77
2023/12/06 02:29:51;;;;;;;39.67;18.60;;;;;;;6.06;65.17;101080.34;4972043;28;112425;-77
2023/12/06 02:32:18;;;;;;;42.92;18.70;;;;;;;6.04;65.10;101081.22;4989208;28;113609;-77
2023/12/06 02:34:49;;;;;;;44.47;19.42;;;;;;;6.04;65.42;101083.84;4991664;28;124396;-78
2023/12/06 02:37:19;;;;;;;41.35;19.38;;;;;;;6.04;65.44;101085.63;4988868;28;122839;-77
2023/12/06 02:39:47;;;;;;;41.65;19.15;;;;;;;6.04;65.23;101090.88;5006531;28;114151;-78
2023/12/06 02:42:15;;;;;;;44.40;19.38;;;;;;;6.04;65.51;101086.47;4989108;28;113921;-77
2023/12/06 02:44:42;;;;;;;42.53;18.98;;;;;;;6.04;65.28;101081.22;4982045;28;124355;-77
2023/12/06 02:47:10;;;;;;;40.53;18.98;;;;;;;6.06;65.36;101089.06;4984176;28;123995;-77
2023/12/06 02:49:37;;;;;;;44.13;18.85;;;;;;;6.08;65.52;101086.41;4982253;28;116616;-78
2023/12/06 02:52:06;;;;;;;40.13;18.40;;;;;;;6.07;65.43;101089.97;4975919;28;116086;-77
2023/12/06 02:54:33;;;;;;;41.45;18.35;;;;;;;6.08;65.35;101091.69;4994778;28;124669;-77
2023/12/06 02:57:00;;;;;;;40.28;17.92;;;;;;;6.07;65.52;101088.19;4993511;28;121843;-77
2023/12/06 02:59:27;;;;;;;39.75;18.60;;;;;;;6.08;65.42;101095.16;5012432;28;114694;-78
2023/12/06 03:01:54;;;;;;;43.28;18.35;;;;;;;6.09;65.50;101082.91;5019309;28;113907;-78
2023/12/06 03:04:22;;;;;;;39.60;18.15;;;;;;;6.11;65.37;101086.34;4991970;28;124358;-78
2023/12/06 03:06:49;;;;;;;37.50;18.50;;;;;;;6.10;65.38;101095.13;4988386;28;123459;-78
2023/12/06 03:09:17;;;;;;;39.33;18.40;;;;;;;6.10;65.06;101089.88;4989703;28;113624;-78
2023/12/06 03:11:44;;;;;;;38.13;18.65;;;;;;;6.09;65.17;101088.16;5003654;28;114185;-78
2023/12/06 03:14:11;;;;;;;37.78;17.52;;;;;;;6.10;65.23;101089.88;4991368;28;123018;-78
2023/12/06 03:16:38;;;;;;;40.90;18.15;;;;;;;6.10;65.39;101089.88;5022104;28;122926;-78
2023/12/06 03:19:05;;;;;;;39.42;17.55;;;;;;;6.12;65.45;101090.69;4996970;28;112340;-78
2023/12/06 03:21:33;;;;;;;38.47;17.85;;;;;;;6.13;65.30;101089.81;4983911;28;114850;-78
2023/12/06 03:24:00;;;;;;;37.35;18.38;;;;;;;6.14;65.37;101096.78;4983639;28;124250;-78
2023/12/06 03:26:27;;;;;;;36.20;17.63;;;;;;;6.15;65.52;101093.28;4986215;28;124364;-78
2023/12/06 03:28:55;;;;;;;36.80;17.45;;;;;;;6.17;65.39;101096.72;5012696;28;114217;-78
2023/12/06 03:31:22;;;;;;;37.10;17.45;;;;;;;6.17;65.31;101102.00;4995033;28;113023;-78
2023/12/06 03:33:51;;;;;;;34.80;16.52;;;;;;;6.17;65.39;101096.72;4986012;28;123290;-78
2023/12/06 03:36:18;;;;;;;32.28;16.83;;;;;;;6.19;65.65;101105.44;4985238;28;123163;-78
2023/12/06 03:38:45;;;;;;;32.50;16.38;;;;;;;6.19;65.40;101110.72;5012308;28;114835;-78
2023/12/06 03:41:12;;;;;;;35.72;16.58;;;;;;;6.21;65.23;101114.16;4966128;28;115390;-78
2023/12/06 03:43:40;;;;;;;39.35;17.58;;;;;;;6.22;65.34;101110.66;4990230;28;124454;-78
2023/12/06 03:46:28;;;;;;;34.72;17.77;;;;;;;6.23;65.50;101117.63;4984637;28;123787;-78
2023/12/06 03:48:55;;;;;;;36.47;17.05;;;;;;;6.22;65.34;101106.25;4982835;28;113918;-78
2023/12/06 03:51:22;;;;;;;34.83;16.98;;;;;;;6.23;65.32;101117.63;4994410;28;112811;-78
2023/12/06 03:53:50;;;;;;;35.08;17.15;;;;;;;6.24;65.23;101125.47;4992693;28;123507;-78
2023/12/06 03:56:17;;;;;;;29.38;16.27;;;;;;;6.24;65.30;101125.47;4986732;28;124523;-77
2023/12/06 03:58:44;;;;;;;33.30;16.85;;;;;;;6.25;65.43;101131.59;4989425;28;115155;-77
2023/12/06 04:01:12;;;;;;;30.33;16.30;;;;;;;6.27;65.45;101135.06;4981652;28;112922;-78
2023/12/06 04:03:40;;;;;;;30.80;16.20;;;;;;;6.27;65.36;101135.06;4987721;28;124226;-77
2023/12/06 04:06:08;;;;;;;33.10;16.83;;;;;;;6.27;65.40;101135.06;4986855;28;124698;-78
2023/12/06 04:08:35;;;;;;;33.50;16.60;;;;;;;6.28;65.51;101141.22;4991461;28;114554;-77
2023/12/06 04:11:04;;;;;;;29.83;15.38;;;;;;;6.27;65.22;101140.31;4991592;28;115039;-77
2023/12/06 04:13:31;;;;;;;33.28;16.30;;;;;;;6.28;65.42;101144.69;4988047;28;123797;-77
2023/12/06 04:15:58;;;;;;;29.65;15.57;;;;;;;6.29;65.24;101149.06;4976885;28;123725;-77
2023/12/06 04:18:25;;;;;;;32.30;15.23;;;;;;;6.30;65.61;101145.53;4994253;28;113588;-77
2023/12/06 04:20:53;;;;;;;33.22;16.40;;;;;;;6.32;65.42;101154.25;4995461;28;114195;-77
2023/12/06 04:23:20;;;;;;;28.83;15.27;;;;;;;6.34;65.64;101152.44;5010871;28;123995;-77
2023/12/06 04:25:48;;;;;;;30.55;16.05;;;;;;;6.35;65.48;101148.91;4998943;28;124174;-77
2023/12/06 04:28:15;;;;;;;35.22;16.35;;;;;;;6.36;65.41;101158.53;5005844;28;115378;-77
2023/12/06 04:30:42;;;;;;;29.33;15.45;;;;;;;6.37;65.57;101157.63;4988289;28;114798;-78
2023/12/06 04:33:09;;;;;;;29.27;15.50;;;;;;;6.36;65.65;101153.28;4977048;28;123967;-77
2023/12/06 04:35:36;;;;;;;29.98;15.18;;;;;;;6.37;65.54;101155.00;4986549;28;125169;-77
2023/12/06 04:38:03;;;;;;;29.80;15.75;;;;;;;6.39;65.76;101161.09;5001938;28;114377;-77
2023/12/06 04:40:31;;;;;;;29.60;15.82;;;;;;;6.42;65.31;101161.03;4992435;28;113575;-77
2023/12/06 04:42:58;;;;;;;29.05;15.23;;;;;;;6.45;65.58;101164.50;4992419;28;122967;-77
2023/12/06 04:45:25;;;;;;;30.00;15.50;;;;;;;6.46;65.48;101166.22;5003895;28;124830;-77
2023/12/06 04:47:52;;;;;;;25.35;14.00;;;;;;;6.47;65.40;101168.81;4992937;28;114238;-77
2023/12/06 04:50:19;;;;;;;28.30;14.63;;;;;;;6.47;65.13;101162.69;4997551;28;113948;-77
2023/12/06 04:52:46;;;;;;;25.80;14.48;;;;;;;6.48;65.46;101159.16;4992257;28;125408;-77
2023/12/06 04:55:14;;;;;;;28.02;15.32;;;;;;;6.50;65.73;101167.88;4992139;28;122844;-77
2023/12/06 04:57:41;;;;;;;28.05;14.98;;;;;;;6.52;65.41;101163.47;4992552;28;116510;-77
2023/12/06 05:00:09;;;;;;;28.05;14.45;;;;;;;6.53;65.39;101167.81;5002321;28;113667;-77
2023/12/06 05:02:36;;;;;;;29.52;14.50;;;;;;;6.54;65.59;101174.81;4993891;28;123774;-77
2023/12/06 05:05:04;;;;;;;24.85;13.77;;;;;;;6.53;65.43;101167.81;4987978;28;124173;-77
2023/12/06 05:07:31;;;;;;;27.35;14.38;;;;;;;6.54;65.56;101174.81;4998820;28;113409;-77
2023/12/06 05:09:59;;;;;;;29.25;14.57;;;;;;;6.54;65.22;101169.56;4980172;28;115162;-77
2023/12/06 05:12:26;;;;;;;25.77;14.13;;;;;;;6.55;65.43;101172.13;4975356;28;124321;-77
2023/12/06 05:14:53;;;;;;;28.73;14.57;;;;;;;6.56;65.62;101178.28;4979997;28;125835;-77
2023/12/06 05:17:20;;;;;;;25.55;13.00;;;;;;;6.57;65.45;101180.00;4994934;28;114956;-77
2023/12/06 05:19:48;;;;;;;23.98;13.73;;;;;;;6.58;65.39;101181.75;5014298;27;115586;-78
2023/12/06 05:22:15;;;;;;;26.20;13.88;;;;;;;6.58;65.39;101181.75;4991769;28;122029;-78
2023/12/06 05:24:43;;;;;;;25.27;13.82;;;;;;;6.58;65.62;101176.47;4993150;28;124500;-78
2023/12/06 05:27:10;;;;;;;27.35;14.25;;;;;;;6.59;65.35;101183.44;4993968;28;114244;-78
2023/12/06 05:29:37;;;;;;;24.52;13.70;;;;;;;6.58;65.75;101181.75;5007781;28;113613;-77
2023/12/06 05:32:05;;;;;;;24.80;13.35;;;;;;;6.59;65.48;101183.44;4976635;28;125254;-78
2023/12/06 05:34:32;;;;;;;25.25;13.85;;;;;;;6.61;65.36;101192.16;4994415;28;124060;-78
2023/12/06 05:36:59;;;;;;;26.13;14.05;;;;;;;6.62;65.87;101188.66;5012527;28;114072;-78
2023/12/06 05:39:27;;;;;;;25.30;13.55;;;;;;;6.64;65.57;101192.13;4990320;28;114831;-77
2023/12/06 05:41:55;;;;;;;26.92;14.10;;;;;;;6.64;65.37;101197.38;5001807;28;124083;-77
2023/12/06 05:44:22;;;;;;;24.77;14.13;;;;;;;6.65;65.56;101193.88;4979377;28;123704;-77
2023/12/06 05:46:49;;;;;;;25.17;13.85;;;;;;;6.66;65.59;101190.31;4975632;28;114226;-78
2023/12/06 05:49:16;;;;;;;26.08;13.35;;;;;;;6.67;65.45;101197.31;4981614;28;114233;-78
2023/12/06 05:51:44;;;;;;;22.70;12.65;;;;;;;6.68;65.58;101198.19;4992863;28;125195;-77
2023/12/06 05:54:11;;;;;;;23.80;13.80;;;;;;;6.70;65.64;101205.13;5022217;28;124271;-78
2023/12/06 05:56:38;;;;;;;24.08;13.57;;;;;;;6.71;65.63;101209.50;4981308;28;115082;-77
2023/12/06 05:59:05;;;;;;;25.90;13.77;;;;;;;6.73;65.87;101199.81;5027136;28;113321;-77
2023/12/06 06:01:33;;;;;;;23.45;13.68;;;;;;;6.74;65.77;101204.19;5020928;28;124017;-77
2023/12/06 06:04:00;;;;;;;23.42;12.65;;;;;;;6.76;65.84;101207.63;5004602;28;124569;-78
2023/12/06 06:06:33;;;;;;;23.77;13.23;;;;;;;6.78;65.96;101211.09;4975492;28;113417;-77
2023/12/06 06:09:01;;;;;;;23.35;13.70;;;;;;;6.79;65.80;101212.81;5000365;28;115691;-78
2023/12/06 06:11:29;;;;;;;23.55;13.38;;;;;;;6.81;65.72;101211.00;4981548;28;123688;-77
2023/12/06 06:13:56;;;;;;;23.88;13.00;;;;;;;6.83;65.89;101209.19;4984797;28;125644;-77
2023/12/06 06:16:23;;;;;;;21.35;12.65;;;;;;;6.86;65.65;101212.69;5016438;28;114797;-78
2023/12/06 06:18:51;;;;;;;21.23;12.75;;;;;;;6.86;65.71;101213.53;5012729;28;114247;-78
2023/12/06 06:21:19;;;;;;;22.10;12.82;;;;;;;6.90;65.94;101216.97;4992826;28;124728;-78
2023/12/06 06:23:46;;;;;;;19.95;13.02;;;;;;;6.92;65.84;101212.53;4992336;28;123673;-78
2023/12/06 06:26:13;;;;;;;23.85;13.13;;;;;;;6.96;65.76;101222.09;5004684;28;114574;-78
2023/12/06 06:28:41;;;;;;;21.15;12.93;;;;;;;6.97;65.98;101221.19;4993534;28;112806;-78
2023/12/06 06:31:09;;;;;;;22.27;12.82;;;;;;;6.98;65.96;101222.91;4989075;28;124372;-78
2023/12/06 06:33:36;;;;;;;21.67;13.00;;;;;;;6.99;65.54;101229.91;4990943;28;125014;-77
2023/12/06 06:36:04;;;;;;;21.23;12.50;;;;;;;6.99;65.71;101233.41;5003877;28;115025;-77
2023/12/06 06:38:31;;;;;;;24.15;12.73;;;;;;;6.99;65.40;101229.91;5002490;28;114663;-77
2023/12/06 06:40:58;;;;;;;25.30;14.65;;;;;;;7.00;66.00;101231.63;5000438;28;125015;-78
2023/12/06 06:43:26;;;;;;;19.02;12.18;;;;;;;7.00;65.47;101242.16;5014672;28;124314;-77
2023/12/06 06:45:53;;;;;;;24.60;13.18;;;;;;;7.02;65.46;101243.84;4991871;28;114945;-77
2023/12/06 06:48:20;;;;;;;23.25;13.20;;;;;;;7.01;65.57;101238.66;4984067;28;113221;-77
2023/12/06 06:50:48;;;;;;;23.83;12.70;;;;;;;7.02;65.55;101243.00;4991658;28;123108;-78
2023/12/06 06:53:15;;;;;;;21.23;12.70;;;;;;;7.03;65.83;101252.66;4993711;28;124972;-77
2023/12/06 06:55:42;;;;;;;21.15;13.05;;;;;;;7.04;65.59;101254.34;4977003;28;115101;-77
2023/12/06 06:58:09;;;;;;;21.48;12.55;;;;;;;7.06;65.76;101252.53;4992085;28;114131;-78
2023/12/06 07:00:36;;;;;;;20.17;12.75;;;;;;;7.07;65.92;101254.28;5009540;28;123985;-77
2023/12/06 07:03:03;;;;;;;22.52;13.10;;;;;;;7.09;65.63;101259.53;4991335;28;125024;-77
2023/12/06 07:05:32;;;;;;;21.40;12.80;;;;;;;7.11;65.60;101271.75;4991577;28;113691;-77
2023/12/06 07:08:00;;;;;;;22.15;12.52;;;;;;;7.11;65.85;101266.47;4991986;28;113825;-77
2023/12/06 07:10:27;;;;;;;23.15;12.32;;;;;;;7.14;65.91;101270.81;5006170;28;123237;-77
2023/12/06 07:12:54;;;;;;;21.55;11.90;;;;;;;7.13;66.00;101267.31;4976808;28;124224;-77
2023/12/06 07:15:22;;;;;;;22.90;12.70;;;;;;;7.15;65.97;101268.13;4973160;28;115117;-77
2023/12/06 07:17:49;;;;;;;22.98;12.55;;;;;;;7.17;65.99;101266.31;4989505;28;114903;-77
2023/12/06 07:20:17;;;;;;;14.32;7.47;;;;;;;7.19;65.62;101269.78;4994689;28;125283;-78
2023/12/06 07:23:06;;;;;;;15.07;7.80;;;;;;;7.20;65.93;101271.53;4999429;28;122580;-78
2023/12/06 07:25:33;;;;;;;17.13;7.57;;;;;;;7.22;65.79;101269.72;4998462;28;114910;-78
2023/12/06 07:28:02;;;;;;;14.10;8.07;;;;;;;7.25;65.67;101270.56;4997046;28;113811;-79
2023/12/06 07:30:30;;;;;;;17.38;8.38;;;;;;;7.27;65.93;101281.91;5014165;28;123825;-78
2023/12/06 07:32:57;;;;;;;14.43;8.05;;;;;;;7.27;65.99;101277.53;4992611;28;123752;-78
2023/12/06 07:35:24;;;;;;;15.18;7.82;;;;;;;7.30;65.89;101287.13;5006197;28;114233;-78
2023/12/06 07:37:53;;;;;;;17.17;7.75;;;;;;;7.32;65.86;101282.69;4993205;28;114747;-79
2023/12/06 07:40:21;;;;;;;15.20;7.80;;;;;;;7.34;65.86;101299.31;5006342;28;124012;-78
2023/12/06 07:42:48;;;;;;;16.20;7.95;;;;;;;7.37;65.82;101293.97;5001859;28;123881;-78
2023/12/06 07:45:15;;;;;;;16.23;8.27;;;;;;;7.38;65.99;101300.97;4976603;28;116140;-78
2023/12/06 07:47:43;;;;;;;17.08;8.38;;;;;;;7.38;65.64;101300.97;4986633;28;114482;-78
2023/12/06 07:50:10;;;;;;;17.25;8.13;;;;;;;7.40;65.67;101304.44;4994549;28;124797;-78
2023/12/06 07:52:39;;;;;;;15.93;8.38;;;;;;;7.41;65.86;101306.16;5002686;28;123970;-78
2023/12/06 07:55:06;;;;;;;16.60;8.25;;;;;;;7.43;65.83;101314.91;4995671;28;116418;-78
2023/12/06 07:57:34;;;;;;;16.42;8.07;;;;;;;7.45;65.82;101313.09;5003533;28;113877;-78
2023/12/06 08:00:07;;;;;;;17.05;8.27;;;;;;;7.46;65.58;101314.84;4998296;28;123694;-78
2023/12/06 08:02:41;;;;;;;16.10;8.13;;;;;;;7.45;65.35;101313.09;4970141;28;124444;-78
2023/12/06 08:05:12;;;;;;;18.00;7.57;;;;;;;7.47;65.47;101320.97;4976700;28;112741;-78
2023/12/06 08:07:39;;;;;;;16.20;7.72;;;;;;;7.49;65.70;101325.28;5016752;28;114328;-78
2023/12/06 08:10:19;;;;;;;15.35;8.13;;;;;;;7.50;65.91;101321.75;4996534;28;123920;-78
2023/12/06 08:12:46;;;;;;;15.93;7.80;;;;;;;7.52;65.67;101325.22;4993680;28;123903;-78
2023/12/06 08:15:14;;;;;;;18.98;8.45;;;;;;;7.54;65.73;101333.09;4995667;28;115142;-78
2023/12/06 08:17:42;;;;;;;18.00;7.93;;;;;;;7.55;65.91;101325.16;5000519;28;114097;-78
2023/12/06 08:20:10;;;;;;;14.05;6.80;;;;;;;7.56;65.34;101331.28;5011927;28;123940;-78
2023/12/06 08:22:37;;;;;;;11.82;6.35;;;;;;;7.58;65.77;101335.59;5002804;28;124122;-78
2023/12/06 08:25:06;;;;;;;12.82;7.30;;;;;;;7.58;65.56;101335.59;4988125;28;115992;-78
2023/12/06 08:27:34;;;;;;;15.20;6.68;;;;;;;7.60;65.51;101335.56;4977050;28;115195;-78
2023/12/06 08:30:02;;;;;;;16.95;6.82;;;;;;;7.62;65.73;101335.53;4985650;28;122873;-78
2023/12/06 08:32:30;;;;;;;13.70;6.88;;;;;;;7.65;65.75;101341.59;4999101;28;124375;-78
2023/12/06 08:34:58;;;;;;;16.73;6.65;;;;;;;7.67;65.66;101344.22;4991778;28;115739;-77
2023/12/06 08:37:26;;;;;;;17.48;6.45;;;;;;;7.69;65.33;101342.41;4991725;28;115239;-77
2023/12/06 08:39:54;;;;;;;13.05;6.20;;;;;;;7.70;65.53;101344.13;4985612;28;123918;-77
2023/12/06 08:42:21;;;;;;;17.13;6.95;;;;;;;7.72;65.38;101347.56;4971458;28;125236;-78
2023/12/06 08:44:48;;;;;;;16.27;6.25;;;;;;;7.74;65.66;101348.41;4980684;28;112657;-77
2023/12/06 08:47:18;;;;;;;20.95;6.22;;;;;;;7.75;65.38;101347.50;4985608;28;114393;-78
2023/12/06 08:49:46;;;;;;;12.38;6.78;;;;;;;7.77;65.40;101354.47;5014263;28;124266;-78
2023/12/06 08:52:14;;;;;;;17.38;7.05;;;;;;;7.79;65.67;101354.44;5000020;28;123767;-77
2023/12/06 08:54:41;;;;;;;14.18;5.85;;;;;;;7.82;65.43;101359.63;5009767;28;113556;-77
2023/12/06 08:57:08;;;;;;;13.77;6.38;;;;;;;7.84;65.66;101365.75;5007716;28;113755;-77
2023/12/06 08:59:35;;;;;;;14.93;6.55;;;;;;;7.85;65.36;101359.53;5003503;28;123456;-77
2023/12/06 09:02:03;;;;;;;14.20;6.88;;;;;;;7.86;65.36;101366.56;4999807;28;123874;-77
2023/12/06 09:04:30;;;;;;;13.75;7.38;;;;;;;7.87;65.63;101368.28;4990384;28;114156;-77
2023/12/06 09:06:57;;;;;;;12.57;6.70;;;;;;;7.88;65.37;101380.56;4978247;28;113661;-77
2023/12/06 09:09:25;;;;;;;15.55;6.47;;;;;;;7.91;65.62;101377.88;4991082;28;124594;-77
2023/12/06 09:11:53;;;;;;;15.77;6.35;;;;;;;7.93;65.71;101370.78;4984888;28;124095;-77
2023/12/06 09:14:20;;;;;;;16.70;7.57;;;;;;;7.97;65.55;101376.84;5017228;28;114159;-77
2023/12/06 09:16:47;;;;;;;15.95;7.20;;;;;;;8.01;65.49;101375.00;5009305;28;112812;-77
2023/12/06 09:19:15;;;;;;;19.30;7.38;;;;;;;8.04;65.56;101369.63;5007383;28;123296;-78
2023/12/06 09:21:47;;;;;;;13.57;6.72;;;;;;;8.07;65.25;101366.91;4979643;28;123885;-77
2023/12/06 09:24:14;;;;;;;13.60;6.40;;;;;;;8.09;65.51;101383.56;5005874;28;115284;-77
2023/12/06 09:26:42;;;;;;;21.17;7.30;;;;;;;8.13;65.14;101390.50;5001787;28;114330;-78
2023/12/06 09:29:10;;;;;;;13.30;6.93;;;;;;;8.16;65.55;101393.06;4999606;28;123404;-77
2023/12/06 09:31:37;;;;;;;19.20;7.60;;;;;;;8.18;65.44;101399.16;5016342;28;123703;-78
2023/12/06 09:34:06;;;;;;;12.50;6.40;;;;;;;8.20;65.33;101407.91;5017145;28;115108;-77
2023/12/06 09:36:35;;;;;;;16.25;7.68;;;;;;;8.23;65.31;101407.84;4972988;28;113860;-77
2023/12/06 09:39:04;;;;;;;16.17;7.82;;;;;;;8.23;65.41;101413.13;5006737;28;123933;-77
2023/12/06 09:41:33;;;;;;;18.00;8.48;;;;;;;8.25;65.18;101400.75;4985851;28;126106;-78
2023/12/06 09:44:01;;;;;;;24.45;7.38;;;;;;;8.28;65.25;101400.63;4985654;28;115118;-77
2023/12/06 09:46:28;;;;;;;14.80;7.10;;;;;;;8.32;65.67;101402.28;4982449;28;114094;-77
2023/12/06 09:48:55;;;;;;;12.63;6.90;;;;;;;8.35;65.23;101402.22;4993266;28;124740;-77
2023/12/06 09:51:23;;;;;;;16.27;7.75;;;;;;;8.38;65.46;101407.41;4990797;28;123913;-77
2023/12/06 09:53:51;;;;;;;16.45;7.05;;;;;;;8.41;65.42;101402.97;4985980;28;115207;-78
2023/12/06 09:56:19;;;;;;;18.40;7.00;;;;;;;8.42;65.00;101412.63;5010217;28;113771;-77
2023/12/06 09:58:46;;;;;;;16.45;7.10;;;;;;;8.44;65.14;101405.53;4997370;28;126321;-77
2023/12/06 10:01:14;;;;;;;16.55;7.22;;;;;;;8.45;65.08;101409.91;5014065;28;124752;-78
2023/12/06 10:03:42;;;;;;;16.08;6.90;;;;;;;8.44;65.03;101413.44;5002986;28;113979;-78
2023/12/06 10:06:09;;;;;;;14.82;7.03;;;;;;;8.44;65.18;101422.25;5006624;28;114213;-77
2023/12/06 10:08:37;;;;;;;15.15;6.95;;;;;;;8.45;65.15;101417.84;5017263;28;123683;-77
2023/12/06 10:11:05;;;;;;;14.02;6.75;;;;;;;8.47;65.17;101426.59;4972748;28;122680;-77
2023/12/06 10:13:36;;;;;;;18.40;7.18;;;;;;;8.48;65.20;101423.06;4993549;28;116818;-77
2023/12/06 10:16:17;;;;;;;16.40;7.38;;;;;;;8.49;65.16;101424.75;4993070;28;116389;-78
2023/12/06 10:18:48;;;;;;;16.13;7.07;;;;;;;8.50;64.96;101418.59;5001222;28;124878;-77
2023/12/06 10:21:20;;;;;;;18.08;7.60;;;;;;;8.52;65.02;101420.25;4996126;28;123635;-77
2023/12/06 10:23:58;;;;;;;15.63;7.20;;;;;;;8.55;64.91;101419.31;4980314;28;113756;-77
2023/12/06 10:26:27;;;;;;;13.98;6.57;;;;;;;8.56;65.10;101421.06;4995121;28;114157;-77
2023/12/06 10:28:56;;;;;;;15.55;6.90;;;;;;;8.60;64.98;101417.41;4994127;28;124756;-77
2023/12/06 10:31:24;;;;;;;16.85;6.82;;;;;;;8.60;65.01;101417.41;4990747;28;123350;-77
2023/12/06 10:33:56;;;;;;;13.52;6.85;;;;;;;8.64;65.01;101419.06;4989775;28;114836;-77
2023/12/06 10:36:25;;;;;;;18.95;6.15;;;;;;;8.68;64.94;101420.72;4991317;28;113231;-77
2023/12/06 10:38:54;;;;;;;17.33;6.70;;;;;;;8.71;64.94;101420.63;5002184;28;124139;-77
2023/12/06 10:41:25;;;;;;;10.40;5.20;;;;;;;8.74;65.11;101425.84;4978763;28;125429;-77
2023/12/06 10:43:56;;;;;;;12.65;5.70;;;;;;;8.80;65.01;101431.81;5006928;28;114530;-77
2023/12/06 10:46:25;;;;;;;13.25;6.30;;;;;;;8.85;64.96;101435.22;4987609;28;113243;-77
2023/12/06 10:48:54;;;;;;;12.68;5.70;;;;;;;8.87;64.97;101436.03;4970772;28;123566;-77
2023/12/06 10:51:23;;;;;;;12.55;5.28;;;;;;;8.91;65.08;101424.47;4998998;28;123838;-77
2023/12/06 10:53:54;;;;;;;11.48;5.65;;;;;;;8.94;65.22;101427.03;4984147;28;115116;-77
2023/12/06 10:56:21;;;;;;;12.13;5.00;;;;;;;8.97;65.03;101421.66;5008600;28;115242;-77
2023/12/06 10:58:49;;;;;;;12.55;5.78;;;;;;;9.01;65.10;101423.31;5024357;28;124895;-77
2023/12/06 11:01:17;;;;;;;12.05;5.40;;;;;;;9.06;65.02;101416.13;4974190;28;122564;-77
2023/12/06 11:03:45;;;;;;;13.13;5.20;;;;;;;9.11;65.12;101418.59;5016983;28;114727;-77
2023/12/06 11:06:22;;;;;;;13.95;5.72;;;;;;;9.18;65.13;101420.16;5005249;28;113890;-77
2023/12/06 11:09:35;;;;;;;11.45;5.13;;;;;;;9.21;64.80;101424.47;4989965;28;124427;-77
2023/12/06 11:12:30;;;;;;;12.40;4.85;;;;;;;9.23;64.81;101427.94;4936043;28;124228;-77
2023/12/06 11:15:05;;;;;;;11.17;4.90;;;;;;;9.24;64.45;101424.41;4984040;28;115294;-77
2023/12/06 11:17:45;;;;;;;11.77;5.18;;;;;;;9.26;64.61;101418.16;4974379;28;113259;-77